createdAt,value
2022-09-21T00:01:46.907Z,4.30
2022-09-21T00:04:16.165Z,3.67
2022-09-21T00:06:44.782Z,11.18
2022-09-21T00:09:13.898Z,6.25
2022-09-21T00:11:43.126Z,5.45
2022-09-21T00:14:14.867Z,8.55
2022-09-21T00:16:44.852Z,4.43
2022-09-21T00:19:17.347Z,5.20
2022-09-21T00:21:45.873Z,5.05
2022-09-21T00:24:14.100Z,6.30
2022-09-21T00:26:42.867Z,11.57
2022-09-21T00:29:13.039Z,9.25
2022-09-21T00:31:41.497Z,7.82
2022-09-21T00:34:09.864Z,6.38
2022-09-21T00:36:40.300Z,7.70
2022-09-21T00:39:09.084Z,5.47
2022-09-21T00:41:37.397Z,8.32
2022-09-21T00:44:26.609Z,6.13
2022-09-21T00:46:58.135Z,4.80
2022-09-21T00:49:29.353Z,5.57
2022-09-21T00:52:05.110Z,8.25
2022-09-21T00:54:39.596Z,2.40
2022-09-21T00:57:09.298Z,3.07
2022-09-21T00:59:40.399Z,6.65
2022-09-21T01:02:08.813Z,6.80
2022-09-21T01:04:38.029Z,10.23
2022-09-21T01:07:12.785Z,4.32
2022-09-21T01:09:43.470Z,4.68
2022-09-21T01:12:27.952Z,4.35
2022-09-21T01:15:11.929Z,5.28
2022-09-21T01:17:48.198Z,8.38
2022-09-21T01:20:41.856Z,3.83
2022-09-21T01:23:36.425Z,4.68
2022-09-21T01:26:17.580Z,5.38
2022-09-21T01:29:14.071Z,3.95
2022-09-21T01:31:49.191Z,3.00
2022-09-21T01:34:25.801Z,6.18
2022-09-21T01:36:56.858Z,4.63
2022-09-21T01:39:27.796Z,6.18
2022-09-21T01:41:58.151Z,7.75
2022-09-21T01:44:33.569Z,8.50
2022-09-21T01:49:36.664Z,3.55
2022-09-21T01:52:14.080Z,8.35
2022-09-21T01:54:48.707Z,4.40
2022-09-21T01:57:26.191Z,6.93
2022-09-21T01:59:59.082Z,5.85
2022-09-21T02:02:36.951Z,6.57
2022-09-21T02:05:07.904Z,4.80
2022-09-21T02:07:39.357Z,11.88
2022-09-21T02:10:13.096Z,8.55
2022-09-21T02:12:42.909Z,5.78
2022-09-21T02:15:13.532Z,10.00
2022-09-21T02:17:49.859Z,5.60
2022-09-21T02:20:24.946Z,6.85
2022-09-21T02:23:04.710Z,4.78
2022-09-21T02:25:43.629Z,3.97
2022-09-21T02:28:24.102Z,3.88
2022-09-21T02:31:01.115Z,7.57
2022-09-21T02:33:36.680Z,6.95
2022-09-21T02:36:11.128Z,10.02
2022-09-21T02:38:43.578Z,6.22
2022-09-21T02:41:18.901Z,6.78
2022-09-21T02:43:52.811Z,9.45
2022-09-21T02:46:29.144Z,7.78
2022-09-21T02:49:02.255Z,6.32
2022-09-21T02:51:34.466Z,5.88
2022-09-21T02:54:07.312Z,4.35
2022-09-21T02:56:37.456Z,4.97
2022-09-21T02:59:08.693Z,8.60
2022-09-21T03:01:41.953Z,4.55
2022-09-21T03:04:11.141Z,6.97
2022-09-21T03:06:39.831Z,4.90
2022-09-21T03:09:08.470Z,8.90
2022-09-21T03:11:38.609Z,6.72
2022-09-21T03:14:08.947Z,10.13
2022-09-21T03:16:39.715Z,7.63
2022-09-21T03:19:08.487Z,4.25
2022-09-21T03:21:39.217Z,8.65
2022-09-21T03:24:10.863Z,6.03
2022-09-21T03:26:39.597Z,7.85
2022-09-21T03:29:08.650Z,6.65
2022-09-21T03:31:38.919Z,9.50
2022-09-21T03:34:07.718Z,4.45
2022-09-21T03:36:35.820Z,5.45
2022-09-21T03:39:04.728Z,7.15
2022-09-21T03:41:33.441Z,6.20
2022-09-21T03:44:01.566Z,7.25
2022-09-21T03:46:30.346Z,6.28
2022-09-21T03:49:00.046Z,4.03
2022-09-21T03:51:28.359Z,5.75
2022-09-21T03:53:57.625Z,5.35
2022-09-21T03:56:26.758Z,5.75
2022-09-21T03:58:54.887Z,4.05
2022-09-21T04:01:23.985Z,5.43
2022-09-21T04:03:52.869Z,6.72
2022-09-21T04:06:22.709Z,6.80
2022-09-21T04:08:53.984Z,6.43
2022-09-21T04:11:23.634Z,6.80
2022-09-21T04:13:57.504Z,5.75
2022-09-21T04:16:26.863Z,6.03
2022-09-21T04:18:55.555Z,9.45
2022-09-21T04:21:25.745Z,6.25
2022-09-21T04:23:54.627Z,5.55
2022-09-21T04:26:25.351Z,6.18
2022-09-21T04:28:55.725Z,5.43
2022-09-21T04:31:24.523Z,4.85
2022-09-21T04:33:54.399Z,6.63
2022-09-21T04:36:25.833Z,4.47
2022-09-21T04:38:53.854Z,6.65
2022-09-21T04:41:22.264Z,6.72
2022-09-21T04:43:50.946Z,7.47
2022-09-21T04:46:25.489Z,8.93
2022-09-21T04:48:53.931Z,6.68
2022-09-21T04:51:21.835Z,9.38
2022-09-21T04:53:51.344Z,5.32
2022-09-21T04:56:19.817Z,14.07
2022-09-21T04:58:47.782Z,7.28
2022-09-21T05:01:16.302Z,5.35
2022-09-21T05:03:44.222Z,5.93
2022-09-21T05:06:13.556Z,5.93
2022-09-21T05:09:00.127Z,5.97
2022-09-21T05:11:29.485Z,6.55
2022-09-21T05:13:57.860Z,4.88
2022-09-21T05:16:25.734Z,6.25
2022-09-21T05:18:55.405Z,7.97
2022-09-21T05:21:24.079Z,6.82
2022-09-21T05:23:52.084Z,5.57
2022-09-21T05:26:20.083Z,9.98
2022-09-21T05:28:50.704Z,7.85
2022-09-21T05:31:32.095Z,10.52
2022-09-21T05:34:06.709Z,8.05
2022-09-21T05:36:46.841Z,7.63
2022-09-21T05:39:15.867Z,7.40
2022-09-21T05:41:44.441Z,5.22
2022-09-21T05:44:16.772Z,8.98
2022-09-21T05:46:56.074Z,8.88
2022-09-21T05:49:35.276Z,10.40
2022-09-21T05:52:11.010Z,10.10
2022-09-21T05:54:51.693Z,8.63
2022-09-21T05:57:35.298Z,9.50
2022-09-21T06:00:16.250Z,7.47
2022-09-21T06:03:07.306Z,8.68
2022-09-21T06:05:35.947Z,8.52
2022-09-21T06:08:04.174Z,7.80
2022-09-21T06:10:36.904Z,10.02
2022-09-21T06:13:05.325Z,6.45
2022-09-21T06:15:38.936Z,9.30
2022-09-21T06:18:07.444Z,10.10
2022-09-21T06:20:36.319Z,11.50
2022-09-21T06:23:05.379Z,14.07
2022-09-21T06:25:33.972Z,10.52
2022-09-21T06:28:06.221Z,7.10
2022-09-21T06:30:36.389Z,9.38
2022-09-21T06:33:06.746Z,12.98
2022-09-21T06:35:37.211Z,9.75
2022-09-21T06:38:08.869Z,11.65
2022-09-21T06:40:38.803Z,9.38
2022-09-21T06:43:07.715Z,10.00
2022-09-21T06:45:38.321Z,13.45
2022-09-21T06:48:06.934Z,9.30
2022-09-21T06:50:39.091Z,8.80
2022-09-21T06:53:07.920Z,9.68
2022-09-21T06:55:36.732Z,11.95
2022-09-21T06:58:06.097Z,12.43
2022-09-21T07:00:37.171Z,11.90
2022-09-21T07:03:05.845Z,13.25
2022-09-21T07:05:34.141Z,10.52
2022-09-21T07:08:03.908Z,10.85
2022-09-21T07:10:32.462Z,9.85
2022-09-21T07:13:05.341Z,14.43
2022-09-21T07:15:34.355Z,16.00
2022-09-21T07:18:12.319Z,11.13
2022-09-21T07:20:41.240Z,8.10
2022-09-21T07:23:15.386Z,10.73
2022-09-21T07:25:44.278Z,10.50
2022-09-21T07:28:12.944Z,12.00
2022-09-21T07:30:42.630Z,11.55
2022-09-21T07:33:12.598Z,11.77
2022-09-21T07:35:41.829Z,16.65
2022-09-21T07:38:10.326Z,15.63
2022-09-21T07:40:38.652Z,19.63
2022-09-21T07:43:08.497Z,23.55
2022-09-21T07:45:36.803Z,16.98
2022-09-21T07:48:05.956Z,19.92
2022-09-21T07:50:35.696Z,22.38
2022-09-21T07:53:05.389Z,23.88
2022-09-21T07:55:33.596Z,24.35
2022-09-21T07:58:19.992Z,24.08
2022-09-21T08:00:47.826Z,44.35
2022-09-21T08:03:15.709Z,23.08
2022-09-21T08:05:45.065Z,30.90
2022-09-21T08:08:13.053Z,25.65
2022-09-21T08:10:41.021Z,25.00
2022-09-21T08:13:08.734Z,19.92
2022-09-21T08:15:49.204Z,26.10
2022-09-21T08:18:17.770Z,16.95
2022-09-21T08:20:55.234Z,20.98
2022-09-21T08:23:23.065Z,19.30
2022-09-21T08:25:51.136Z,18.50
2022-09-21T08:28:19.165Z,13.50
2022-09-21T08:30:46.938Z,16.13
2022-09-21T08:33:14.942Z,15.65
2022-09-21T08:35:43.807Z,14.85
2022-09-21T08:38:12.936Z,15.65
2022-09-21T08:40:42.281Z,16.50
2022-09-21T08:43:14.306Z,12.88
2022-09-21T08:45:45.237Z,16.42
2022-09-21T08:48:22.903Z,8.75
2022-09-21T08:50:58.168Z,16.95
2022-09-21T08:53:33.709Z,6.47
2022-09-21T08:56:02.908Z,6.55
2022-09-21T08:58:32.726Z,4.03
2022-09-21T09:01:20.996Z,5.78
2022-09-21T09:04:05.972Z,9.38
2022-09-21T09:06:43.400Z,5.23
2022-09-21T09:09:27.760Z,10.05
2022-09-21T09:12:11.389Z,9.10
2022-09-21T09:14:54.424Z,4.65
2022-09-21T09:17:34.803Z,9.77
2022-09-21T09:20:06.785Z,8.77
2022-09-21T09:22:41.669Z,5.00
2022-09-21T09:25:20.663Z,5.88
2022-09-21T09:27:51.935Z,4.07
2022-09-21T09:30:23.096Z,5.22
2022-09-21T09:32:57.752Z,19.88
2022-09-21T09:35:31.242Z,18.55
2022-09-21T09:38:05.246Z,16.08
2022-09-21T09:40:54.476Z,14.77
2022-09-21T09:43:32.618Z,12.35
2022-09-21T09:46:12.930Z,28.73
2022-09-21T09:49:06.750Z,15.07
2022-09-21T09:51:40.869Z,26.98
2022-09-21T09:54:15.197Z,17.92
2022-09-21T09:59:24.980Z,11.80
2022-09-21T10:02:02.065Z,12.98
2022-09-21T10:04:30.825Z,12.77
2022-09-21T10:06:58.685Z,9.75
2022-09-21T10:09:29.333Z,4.57
2022-09-21T10:12:09.538Z,7.65
2022-09-21T10:14:38.168Z,11.15
2022-09-21T10:17:09.496Z,6.07
2022-09-21T10:19:38.194Z,13.93
2022-09-21T10:22:07.325Z,5.72
2022-09-21T10:24:40.629Z,9.05
2022-09-21T10:27:15.638Z,9.05
2022-09-21T10:29:44.687Z,4.05
2022-09-21T10:32:22.639Z,7.93
2022-09-21T10:35:18.150Z,5.47
2022-09-21T10:37:49.110Z,8.02
2022-09-21T10:40:30.760Z,8.82
2022-09-21T10:43:01.965Z,5.43
2022-09-21T10:45:31.297Z,3.97
2022-09-21T10:48:00.911Z,3.83
2022-09-21T10:50:30.713Z,3.00
2022-09-21T10:53:02.616Z,5.88
2022-09-21T10:55:32.833Z,6.40
2022-09-21T10:58:02.167Z,2.60
2022-09-21T11:00:39.385Z,4.10
2022-09-21T11:03:42.937Z,8.75
2022-09-21T11:06:17.461Z,7.47
2022-09-21T11:08:50.299Z,3.10
2022-09-21T11:11:42.807Z,5.15
2022-09-21T11:14:28.816Z,7.95
2022-09-21T11:16:59.274Z,6.78
2022-09-21T11:19:36.283Z,3.58
2022-09-21T11:22:13.433Z,6.45
2022-09-21T11:24:49.167Z,6.75
2022-09-21T11:27:22.703Z,4.65
2022-09-21T11:30:01.787Z,3.08
2022-09-21T11:32:59.607Z,6.38
2022-09-21T11:35:44.706Z,3.80
2022-09-21T11:38:20.698Z,5.63
2022-09-21T11:41:15.032Z,15.25
2022-09-21T11:44:16.221Z,6.28
2022-09-21T11:46:53.170Z,1.92
2022-09-21T11:49:37.391Z,6.15
2022-09-21T11:52:20.350Z,6.82
2022-09-21T11:55:02.446Z,5.28
2022-09-21T11:57:36.586Z,5.90
2022-09-21T12:00:16.321Z,3.00
2022-09-21T12:03:23.663Z,4.85
2022-09-21T12:06:07.012Z,7.93
2022-09-21T12:08:50.137Z,6.13
2022-09-21T12:11:30.732Z,3.65
2022-09-21T12:14:07.792Z,3.38
2022-09-21T12:16:43.523Z,5.53
2022-09-21T12:19:20.277Z,4.18
2022-09-21T12:21:53.510Z,4.35
2022-09-21T12:24:28.544Z,2.47
2022-09-21T12:27:04.979Z,3.17
2022-09-21T12:29:47.304Z,4.47
2022-09-21T12:32:23.129Z,8.57
2022-09-21T12:34:56.777Z,4.18
2022-09-21T12:37:32.230Z,3.33
2022-09-21T12:42:35.395Z,2.67
2022-09-21T12:45:09.045Z,1.85
2022-09-21T12:47:48.891Z,4.30
2022-09-21T12:50:22.131Z,4.03
2022-09-21T12:52:53.430Z,3.97
2022-09-21T12:55:33.509Z,4.53
2022-09-21T12:58:16.713Z,3.50
2022-09-21T13:00:53.815Z,3.35
2022-09-21T13:03:30.063Z,7.00
2022-09-21T13:06:23.773Z,5.97
2022-09-21T13:08:54.421Z,2.95
2022-09-21T13:11:23.443Z,1.83
2022-09-21T13:14:00.111Z,2.30
2022-09-21T13:16:31.018Z,3.22
2022-09-21T13:19:01.812Z,5.35
2022-09-21T13:21:31.368Z,7.93
2022-09-21T13:24:03.603Z,17.75
2022-09-21T13:26:40.085Z,3.05
2022-09-21T13:29:31.904Z,23.55
2022-09-21T13:32:01.484Z,5.95
2022-09-21T13:34:32.801Z,2.58
2022-09-21T13:37:30.380Z,8.18
2022-09-21T13:40:42.938Z,11.73
2022-09-21T13:43:47.180Z,3.80
2022-09-21T13:46:53.869Z,3.75
2022-09-21T13:51:57.391Z,3.75
2022-09-21T13:54:30.901Z,3.80
2022-09-21T13:57:09.024Z,3.78
2022-09-21T13:59:40.729Z,3.60
2022-09-21T14:02:25.351Z,7.80
2022-09-21T14:04:53.565Z,2.78
2022-09-21T14:07:21.630Z,3.70
2022-09-21T14:09:57.951Z,2.38
2022-09-21T14:12:29.567Z,8.32
2022-09-21T14:15:27.372Z,2.63
2022-09-21T14:18:21.433Z,6.28
2022-09-21T14:21:14.303Z,8.40
2022-09-21T14:23:42.165Z,5.20
2022-09-21T14:26:24.628Z,4.47
2022-09-21T14:28:54.400Z,1.88
2022-09-21T14:31:29.296Z,2.92
2022-09-21T14:34:01.078Z,4.80
2022-09-21T14:36:41.420Z,3.47
2022-09-21T14:39:20.377Z,4.95
2022-09-21T14:41:51.905Z,3.13
2022-09-21T14:44:22.708Z,5.90
2022-09-21T14:47:30.506Z,2.22
2022-09-21T14:50:21.888Z,4.30
2022-09-21T14:53:12.582Z,4.97
2022-09-21T14:56:10.323Z,2.35
2022-09-21T14:58:52.126Z,3.50
2022-09-21T15:01:27.452Z,4.07
2022-09-21T15:06:53.964Z,5.93
2022-09-21T15:09:54.853Z,2.95
2022-09-21T15:12:32.347Z,1.50
2022-09-21T15:15:13.192Z,1.92
2022-09-21T15:17:57.271Z,2.33
2022-09-21T15:20:30.615Z,3.50
2022-09-21T15:23:00.141Z,4.30
2022-09-21T15:25:32.040Z,8.10
2022-09-21T15:28:00.955Z,9.23
2022-09-21T15:30:33.142Z,3.83
2022-09-21T15:33:03.267Z,2.58
2022-09-21T15:35:34.555Z,2.92
2022-09-21T15:38:02.426Z,1.83
2022-09-21T15:40:33.054Z,2.95
2022-09-21T15:43:03.908Z,4.57
2022-09-21T15:45:37.355Z,2.42
2022-09-21T15:48:09.208Z,2.50
2022-09-21T15:50:39.509Z,2.83
2022-09-21T15:53:14.695Z,3.92
2022-09-21T15:55:48.688Z,2.30
2022-09-21T15:58:26.683Z,3.15
2022-09-21T16:00:57.164Z,4.70
2022-09-21T16:03:27.107Z,6.28
2022-09-21T16:06:00.679Z,3.53
2022-09-21T16:08:31.637Z,6.28
2022-09-21T16:11:19.237Z,4.28
2022-09-21T16:14:06.037Z,2.38
2022-09-21T16:16:34.585Z,2.72
2022-09-21T16:19:02.461Z,3.15
2022-09-21T16:21:34.589Z,2.58
2022-09-21T16:24:12.629Z,3.35
2022-09-21T16:26:41.799Z,4.05
2022-09-21T16:29:23.571Z,3.58
2022-09-21T16:31:52.205Z,3.67
2022-09-21T16:34:22.862Z,7.60
2022-09-21T16:36:55.156Z,5.47
2022-09-21T16:39:23.616Z,3.35
2022-09-21T16:42:00.373Z,7.95
2022-09-21T16:44:31.517Z,6.03
2022-09-21T16:47:01.850Z,5.25
2022-09-21T16:49:32.668Z,5.15
2022-09-21T16:52:02.548Z,3.40
2022-09-21T16:54:31.024Z,3.08
2022-09-21T16:57:00.497Z,4.90
2022-09-21T16:59:29.598Z,6.35
2022-09-21T17:01:59.281Z,3.60
2022-09-21T17:04:30.130Z,4.80
2022-09-21T17:06:58.380Z,3.33
2022-09-21T17:09:31.847Z,3.72
2022-09-21T17:12:01.208Z,3.65
2022-09-21T17:14:33.053Z,5.45
2022-09-21T17:17:01.096Z,2.53
2022-09-21T17:19:29.396Z,6.03
2022-09-21T17:21:57.103Z,3.22
2022-09-21T17:24:46.302Z,2.72
2022-09-21T17:27:18.040Z,2.40
2022-09-21T17:29:48.265Z,4.45
2022-09-21T17:32:18.307Z,2.40
2022-09-21T17:34:46.111Z,6.70
2022-09-21T17:37:14.320Z,4.00
2022-09-21T17:39:43.005Z,2.85
2022-09-21T17:42:19.511Z,1.63
2022-09-21T17:45:12.448Z,2.45
2022-09-21T17:47:41.400Z,4.28
2022-09-21T17:50:24.535Z,3.03
2022-09-21T17:53:10.868Z,3.13
2022-09-21T17:55:40.336Z,1.58
2022-09-21T17:58:37.760Z,3.38
2022-09-21T18:01:09.341Z,3.75
2022-09-21T18:03:41.029Z,4.40
2022-09-21T18:06:10.709Z,3.03
2022-09-21T18:08:40.070Z,2.58
2022-09-21T18:11:29.104Z,5.88
2022-09-21T18:14:08.830Z,1.02
2022-09-21T18:16:49.413Z,3.20
2022-09-21T18:19:36.572Z,4.05
2022-09-21T18:22:14.076Z,3.28
2022-09-21T18:24:42.875Z,2.92
2022-09-21T18:27:12.941Z,5.75
2022-09-21T18:29:41.955Z,1.77
2022-09-21T18:32:26.851Z,5.68
2022-09-21T18:35:15.078Z,4.95
2022-09-21T18:37:53.520Z,4.88
2022-09-21T18:40:29.678Z,5.15
2022-09-21T18:43:06.069Z,3.28
2022-09-21T18:45:39.089Z,2.40
2022-09-21T18:48:21.440Z,4.47
2022-09-21T18:50:58.974Z,1.92
2022-09-21T18:53:34.447Z,3.90
2022-09-21T18:58:31.197Z,4.18
2022-09-21T19:01:00.330Z,2.53
2022-09-21T19:03:30.766Z,6.47
2022-09-21T19:06:22.282Z,3.13
2022-09-21T19:08:59.315Z,3.83
2022-09-21T19:11:34.774Z,2.60
2022-09-21T19:14:12.521Z,4.97
2022-09-21T19:16:55.644Z,4.60
2022-09-21T19:19:37.477Z,3.10
2022-09-21T19:22:15.627Z,2.05
2022-09-21T19:24:55.999Z,2.05
2022-09-21T19:27:31.117Z,4.35
2022-09-21T19:30:05.945Z,2.40
2022-09-21T19:32:39.949Z,4.85
2022-09-21T19:35:20.570Z,3.45
2022-09-21T19:37:49.289Z,5.68
2022-09-21T19:40:18.912Z,6.30
2022-09-21T19:43:06.756Z,3.35
2022-09-21T19:45:45.487Z,3.55
2022-09-21T19:48:16.080Z,4.05
2022-09-21T19:50:50.957Z,3.70
2022-09-21T19:53:37.304Z,5.47
2022-09-21T19:56:28.771Z,5.75
2022-09-21T19:59:15.356Z,5.75
2022-09-21T20:01:52.606Z,4.15
2022-09-21T20:04:28.300Z,5.10
2022-09-21T20:07:03.326Z,4.03
2022-09-21T20:09:40.007Z,5.15
2022-09-21T20:12:17.264Z,11.23
2022-09-21T20:14:51.730Z,6.00
2022-09-21T20:17:23.033Z,6.63
2022-09-21T20:19:57.643Z,4.18
2022-09-21T20:22:33.821Z,2.58
2022-09-21T20:25:08.023Z,5.00
2022-09-21T20:27:40.068Z,2.25
2022-09-21T20:30:11.428Z,4.45
2022-09-21T20:32:42.466Z,2.88
2022-09-21T20:35:16.989Z,4.22
2022-09-21T20:37:46.980Z,5.73
2022-09-21T20:40:16.175Z,5.80
2022-09-21T20:42:44.580Z,3.67
2022-09-21T20:45:13.996Z,4.60
2022-09-21T20:47:42.956Z,6.13
2022-09-21T20:50:13.640Z,6.38
2022-09-21T20:52:42.839Z,2.78
2022-09-21T20:55:14.036Z,6.05
2022-09-21T20:57:42.661Z,6.63
2022-09-21T21:00:13.410Z,2.30
2022-09-21T21:02:41.657Z,6.60
2022-09-21T21:05:11.714Z,7.57
2022-09-21T21:07:44.291Z,1.95
2022-09-21T21:10:16.639Z,3.85
2022-09-21T21:12:44.901Z,2.83
2022-09-21T21:15:13.687Z,3.72
2022-09-21T21:17:42.791Z,3.20
2022-09-21T21:20:12.425Z,2.03
2022-09-21T21:22:40.496Z,5.20
2022-09-21T21:25:09.465Z,9.35
2022-09-21T21:27:38.872Z,2.55
2022-09-21T21:30:08.623Z,5.38
2022-09-21T21:32:37.709Z,1.40
2022-09-21T21:35:07.947Z,4.50
2022-09-21T21:37:36.669Z,4.97
2022-09-21T21:40:04.918Z,5.00
2022-09-21T21:42:32.715Z,4.32
2022-09-21T21:45:03.564Z,3.88
2022-09-21T21:47:40.201Z,3.88
2022-09-21T21:50:10.123Z,3.80
2022-09-21T21:52:38.393Z,5.47
2022-09-21T21:55:07.494Z,3.60
2022-09-21T21:57:35.694Z,5.97
2022-09-21T22:00:06.493Z,3.40
2022-09-21T22:02:35.000Z,8.25
2022-09-21T22:05:02.971Z,9.70
2022-09-21T22:07:30.870Z,6.35
2022-09-21T22:09:59.147Z,5.35
2022-09-21T22:12:27.032Z,7.10
2022-09-21T22:14:55.250Z,6.47
2022-09-21T22:17:24.579Z,2.97
2022-09-21T22:19:54.041Z,3.95
2022-09-21T22:22:22.094Z,4.95
2022-09-21T22:24:50.102Z,4.38
2022-09-21T22:27:18.021Z,3.90
2022-09-21T22:29:45.994Z,3.00
2022-09-21T22:32:14.553Z,4.82
2022-09-21T22:34:43.762Z,2.63
2022-09-21T22:37:11.561Z,4.10
2022-09-21T22:39:39.494Z,2.03
2022-09-21T22:42:07.426Z,6.07
2022-09-21T22:44:35.808Z,8.50
2022-09-21T22:47:03.568Z,2.05
2022-09-21T22:49:31.616Z,4.55
2022-09-21T22:52:01.308Z,5.22
2022-09-21T22:54:29.513Z,6.07
2022-09-21T22:56:57.396Z,6.22
2022-09-21T22:59:25.958Z,4.25
2022-09-21T23:01:54.722Z,6.28
2022-09-21T23:04:23.174Z,4.68
2022-09-21T23:06:51.992Z,4.63
2022-09-21T23:09:22.490Z,2.13
2022-09-21T23:11:54.220Z,7.10
2022-09-21T23:14:23.379Z,2.60
2022-09-21T23:16:52.001Z,3.50
2022-09-21T23:19:20.191Z,3.83
2022-09-21T23:21:50.718Z,2.42
2022-09-21T23:24:20.407Z,2.67
2022-09-21T23:26:51.704Z,6.72
2022-09-21T23:29:20.156Z,9.85
2022-09-21T23:31:48.286Z,3.30
2022-09-21T23:34:17.576Z,2.70
2022-09-21T23:36:46.866Z,10.38
2022-09-21T23:39:16.823Z,6.93
2022-09-21T23:41:45.232Z,2.97
2022-09-21T23:44:15.015Z,11.50
2022-09-21T23:46:43.205Z,2.88
2022-09-21T23:49:11.391Z,4.00
2022-09-21T23:51:39.743Z,2.85
2022-09-21T23:54:08.028Z,4.03
2022-09-21T23:56:37.481Z,5.78
2022-09-21T23:59:05.519Z,2.83
